PDT,Max TemperatureF,Mean TemperatureF,Min TemperatureF,Max Dew PointF,MeanDew PointF,Min DewpointF,Max Humidity, Mean Humidity, Min Humidity, Max Sea Level PressureIn, Mean Sea Level PressureIn, Min Sea Level PressureIn, Max VisibilityMiles, Mean VisibilityMiles, Min VisibilityMiles, Max Wind SpeedMPH, Mean Wind SpeedMPH, Max Gust SpeedMPH,PrecipitationIn, CloudCover, Events, WindDirDegrees
2013-6-1,64,55,46,57,52,46,100,86,64,30.27,30.18,30.09,10,10,10,14,3,18,0.00,4,,256
2013-6-2,64,58,51,57,54,52,100,89,68,30.11,30.09,30.06,10,10,10,17,11,22,0.00,3,,298
2013-6-3,66,56,46,59,54,46,100,88,68,30.14,30.11,30.09,10,10,9,10,3,,0.00,2,,221
2013-6-4,71,58,46,61,54,46,100,82,53,30.16,30.11,30.05,10,10,3,12,3,,0.00,0,,269
2013-6-5,71,61,51,63,57,50,100,90,68,30.12,30.09,30.06,10,10,9,10,5,,0.00,2,,147
2013-6-6,73,60,48,61,53,41,100,78,40,30.08,30.06,30.03,10,9,2,9,2,16,0.00,0,,240
2013-6-7,66,58,51,55,51,46,88,76,64,30.19,30.10,30.04,10,10,9,14,7,18,0.00,6,,164
2013-6-8,62,56,50,54,52,48,100,86,63,30.21,30.18,30.13,10,10,10,13,6,20,0.00,5,,153
2013-6-9,64,56,48,54,50,45,100,82,52,30.13,30.10,30.06,10,10,7,13,5,22,0.00,5,,140
2013-6-10,66,55,44,55,50,45,100,84,56,30.06,29.98,29.91,10,10,7,12,4,,0.00,1,,203
2013-6-11,64,58,51,55,51,46,100,79,55,30.11,30.05,29.95,10,10,7,9,4,,0.00,6,,201
2013-6-12,64,57,50,55,53,48,100,88,63,30.16,30.14,30.11,10,10,10,12,4,,0.01,6,,139
2013-6-13,66,57,48,55,52,48,100,86,56,30.23,30.19,30.16,10,10,9,14,3,21,0.00,6,,211
2013-6-14,64,57,50,55,53,50,100,90,68,30.25,30.20,30.10,10,9,2,9,6,,0.00,6,,185
2013-6-15,66,57,48,59,55,48,100,89,68,30.09,30.00,29.94,10,10,10,15,6,,0.00,0,,291
2013-6-16,68,60,51,61,56,52,100,88,68,30.10,30.07,30.00,10,10,4,12,3,18,0.00,1,,199
2013-6-17,73,60,48,57,55,48,100,83,53,30.11,30.02,29.91,10,10,4,12,4,,0.01,1,,182
2013-6-18,71,62,53,59,53,45,100,78,38,29.98,29.95,29.90,10,10,2,13,5,21,0.00,3,,171
2013-6-19,66,58,51,55,53,48,100,81,52,30.01,29.96,29.92,10,10,9,16,6,24,0.00,6,,180
2013-6-20,57,55,53,55,54,52,100,98,82,30.12,30.02,29.96,10,8,3,13,6,20,0.49,7,,198
2013-6-21,66,58,51,57,54,52,100,90,64,30.19,30.16,30.12,10,10,2,6,3,,0.68,7,,186
2013-6-22,71,60,50,61,56,50,100,84,64,30.15,30.03,29.89,10,10,2,12,2,,0.00,2,,261
2013-6-23,69,61,53,68,62,54,100,97,78,29.88,29.75,29.61,10,10,7,8,3,,0.01,5,,314
2013-6-24,66,62,57,63,60,57,100,97,73,29.71,29.65,29.58,10,9,2,13,5,21,0.04,7,,137
2013-6-25,73,65,57,63,59,57,100,89,57,29.84,29.74,29.68,10,10,5,16,6,23,0.14,4,,123
2013-6-26,73,65,57,63,60,55,100,86,64,30.09,29.96,29.85,10,10,6,16,8,24,0.01,5,,134
2013-6-27,73,66,59,66,64,59,100,95,73,30.23,30.14,30.06,10,10,7,13,5,18,0.07,6,,90
2013-6-28,73,65,57,70,64,57,100,95,83,30.23,30.14,30.08,10,10,10,13,5,,0.00,1,,306
2013-6-29,78,69,60,70,64,61,100,85,65,30.12,30.08,30.03,10,10,10,9,2,,0.00,0,,223
2013-6-30,82,70,57,72,65,57,100,86,61,30.04,29.97,29.88,10,10,8,12,3,,0.00,0,,287